createdAt,value
2023-04-28T00:00:23.993Z,11.77
2023-04-28T00:03:32.008Z,12.23
2023-04-28T00:06:37.684Z,11.77
2023-04-28T00:09:43.192Z,12.02
2023-04-28T00:12:48.748Z,12.05
2023-04-28T00:15:54.777Z,11.57
2023-04-28T00:19:15.605Z,11.98
2023-04-28T00:22:23.575Z,12.20
2023-04-28T00:25:29.377Z,12.18
2023-04-28T00:28:35.185Z,11.27
2023-04-28T00:31:41.150Z,12.40
2023-04-28T00:34:46.420Z,11.98
2023-04-28T00:37:54.749Z,11.60
2023-04-28T00:41:00.796Z,12.52
2023-04-28T00:44:06.939Z,12.05
2023-04-28T00:47:13.201Z,11.65
2023-04-28T00:50:19.645Z,11.55
2023-04-28T00:53:27.546Z,11.93
2023-04-28T00:56:33.897Z,11.77
2023-04-28T00:59:39.786Z,11.35
2023-04-28T01:02:45.189Z,11.52
2023-04-28T01:05:50.565Z,11.30
2023-04-28T01:08:59.230Z,11.23
2023-04-28T01:12:04.425Z,12.27
2023-04-28T01:15:22.022Z,11.50
2023-04-28T01:18:30.002Z,11.32
2023-04-28T01:21:35.852Z,11.98
2023-04-28T01:24:53.450Z,14.90
2023-04-28T01:27:58.958Z,14.80
2023-04-28T01:31:04.515Z,13.60
2023-04-28T01:34:10.328Z,15.48
2023-04-28T01:37:15.820Z,15.95
2023-04-28T01:40:24.091Z,15.93
2023-04-28T01:43:29.491Z,16.90
2023-04-28T01:46:34.955Z,14.55
2023-04-28T01:49:40.550Z,16.65
2023-04-28T01:52:47.156Z,11.98
2023-04-28T01:55:56.608Z,12.52
2023-04-28T01:59:01.972Z,12.40
2023-04-28T02:02:07.482Z,12.40
2023-04-28T02:05:13.022Z,11.25
2023-04-28T02:08:18.831Z,11.27
2023-04-28T02:11:27.085Z,10.93
2023-04-28T02:14:35.445Z,11.32
2023-04-28T02:17:40.924Z,10.75
2023-04-28T02:20:46.124Z,10.90
2023-04-28T02:23:51.720Z,11.30
2023-04-28T02:26:59.790Z,11.25
2023-04-28T02:30:07.095Z,12.15
2023-04-28T02:33:12.989Z,11.63
2023-04-28T02:36:18.843Z,12.07
2023-04-28T02:39:27.326Z,10.52
2023-04-28T02:42:37.911Z,10.93
2023-04-28T02:45:43.323Z,10.77
2023-04-28T02:48:48.642Z,11.05
2023-04-28T02:51:54.470Z,10.35
2023-04-28T02:55:00.071Z,11.05
2023-04-28T02:58:08.188Z,10.52
2023-04-28T03:01:13.603Z,11.57
2023-04-28T03:04:19.628Z,11.32
2023-04-28T03:07:25.414Z,11.57
2023-04-28T03:10:31.829Z,10.77
2023-04-28T03:13:41.212Z,10.43
2023-04-28T03:16:47.281Z,11.10
2023-04-28T03:19:53.078Z,10.38
2023-04-28T03:22:58.753Z,11.40
2023-04-28T03:26:04.398Z,9.88
2023-04-28T03:29:12.982Z,10.10
2023-04-28T03:32:18.680Z,9.50
2023-04-28T03:35:24.080Z,9.85
2023-04-28T03:38:30.309Z,9.30
2023-04-28T03:41:36.185Z,10.23
2023-04-28T03:45:02.649Z,10.25
2023-04-28T03:48:10.904Z,9.32
2023-04-28T03:51:16.996Z,10.60
2023-04-28T03:54:22.809Z,9.93
2023-04-28T03:57:28.294Z,10.40
2023-04-28T04:00:37.457Z,10.25
2023-04-28T04:03:44.214Z,9.00
2023-04-28T04:06:50.424Z,11.10
2023-04-28T04:09:56.267Z,9.85
2023-04-28T04:13:01.857Z,9.98
2023-04-28T04:16:10.302Z,10.07
2023-04-28T04:22:22.472Z,9.60
2023-04-28T04:25:27.989Z,9.35
2023-04-28T04:28:34.305Z,10.13
2023-04-28T04:31:42.418Z,9.55
2023-04-28T04:34:48.300Z,8.30
2023-04-28T04:37:54.385Z,9.30
2023-04-28T04:40:59.646Z,8.80
2023-04-28T04:44:06.468Z,8.75
2023-04-28T04:47:20.562Z,10.10
2023-04-28T04:50:26.678Z,8.63
2023-04-28T04:53:33.122Z,9.73
2023-04-28T04:56:39.403Z,9.15
2023-04-28T04:59:45.010Z,9.10
2023-04-28T05:02:57.283Z,8.48
2023-04-28T05:06:03.680Z,8.75
2023-04-28T05:09:17.453Z,8.90
2023-04-28T05:12:23.003Z,8.80
2023-04-28T05:15:28.579Z,9.13
2023-04-28T05:19:05.912Z,9.80
2023-04-28T05:22:11.938Z,9.15
2023-04-28T05:25:17.497Z,9.40
2023-04-28T05:28:23.318Z,9.15
2023-04-28T05:31:32.570Z,9.15
2023-04-28T05:34:40.745Z,9.70
2023-04-28T05:37:46.440Z,9.45
2023-04-28T05:40:52.069Z,9.52
2023-04-28T05:43:57.449Z,10.32
2023-04-28T05:47:02.974Z,9.88
2023-04-28T05:50:11.717Z,10.82
2023-04-28T05:53:17.070Z,9.85
2023-04-28T05:56:23.445Z,9.50
2023-04-28T05:59:28.953Z,9.02
2023-04-28T06:02:36.553Z,9.90
2023-04-28T06:05:45.006Z,11.25
2023-04-28T06:08:52.551Z,10.27
2023-04-28T06:11:58.032Z,10.15
2023-04-28T06:15:03.983Z,11.32
2023-04-28T06:18:11.591Z,10.48
2023-04-28T06:21:19.740Z,10.60
2023-04-28T06:24:25.293Z,10.48
2023-04-28T06:27:33.562Z,9.30
2023-04-28T06:30:38.780Z,9.98
2023-04-28T06:33:44.604Z,10.20
2023-04-28T06:36:52.542Z,7.88
2023-04-28T06:39:58.157Z,8.43
2023-04-28T06:43:03.658Z,8.93
2023-04-28T06:46:14.285Z,8.45
2023-04-28T06:49:21.327Z,8.10
2023-04-28T06:52:38.599Z,8.02
2023-04-28T06:55:44.797Z,7.38
2023-04-28T06:58:50.487Z,7.30
2023-04-28T07:01:55.852Z,7.70
2023-04-28T07:05:01.684Z,7.38
2023-04-28T07:08:11.600Z,6.40
2023-04-28T07:11:17.278Z,6.57
2023-04-28T07:14:22.625Z,6.25
2023-04-28T07:17:28.207Z,6.50
2023-04-28T07:20:33.540Z,5.82
2023-04-28T07:23:42.235Z,6.13
2023-04-28T07:29:52.391Z,5.57
2023-04-28T07:32:57.834Z,6.43
2023-04-28T07:36:03.398Z,6.63
2023-04-28T07:39:11.455Z,6.50
2023-04-28T07:42:16.875Z,7.30
2023-04-28T07:45:22.161Z,6.47
2023-04-28T07:48:27.730Z,7.18
2023-04-28T07:51:33.303Z,6.63
2023-04-28T07:54:41.258Z,6.78
2023-04-28T07:57:46.836Z,7.03
2023-04-28T08:00:52.363Z,7.35
2023-04-28T08:03:58.048Z,7.43
2023-04-28T08:07:04.147Z,7.60
2023-04-28T08:10:12.589Z,10.82
2023-04-28T08:13:18.788Z,7.45
2023-04-28T08:16:25.092Z,7.20
2023-04-28T08:19:30.385Z,7.65
2023-04-28T08:22:35.927Z,7.93
2023-04-28T08:25:43.841Z,7.90
2023-04-28T08:28:49.389Z,8.38
2023-04-28T08:31:54.675Z,8.32
2023-04-28T08:35:00.689Z,7.97
2023-04-28T08:38:06.585Z,8.68
2023-04-28T08:41:15.613Z,11.77
2023-04-28T08:44:21.331Z,9.75
2023-04-28T08:47:26.850Z,8.95
2023-04-28T08:50:33.670Z,8.93
2023-04-28T08:54:06.076Z,10.07
2023-04-28T08:57:11.432Z,9.95
2023-04-28T09:00:17.433Z,10.48
2023-04-28T09:03:23.167Z,11.25
2023-04-28T09:06:28.803Z,11.13
2023-04-28T09:09:37.025Z,11.13
2023-04-28T09:12:46.934Z,15.85
2023-04-28T09:15:52.411Z,13.02
2023-04-28T09:19:00.641Z,11.98
2023-04-28T09:25:24.534Z,11.98
2023-04-28T09:28:32.441Z,12.15
2023-04-28T09:31:41.122Z,11.82
2023-04-28T09:34:47.538Z,13.13
2023-04-28T09:38:01.459Z,12.73
2023-04-28T09:41:06.982Z,11.00
2023-04-28T09:44:19.880Z,11.00
2023-04-28T09:47:25.873Z,10.75
2023-04-28T09:50:43.218Z,10.98
2023-04-28T09:53:48.975Z,10.33
2023-04-28T09:56:55.122Z,11.55
2023-04-28T10:00:06.306Z,11.05
2023-04-28T10:03:19.042Z,11.23
2023-04-28T10:06:25.686Z,11.93
2023-04-28T10:09:31.210Z,11.13
2023-04-28T10:12:39.015Z,11.20
2023-04-28T10:15:49.417Z,12.35
2023-04-28T10:18:55.767Z,9.63
2023-04-28T10:22:06.751Z,9.93
2023-04-28T10:25:22.583Z,10.80
2023-04-28T10:28:28.429Z,10.10
2023-04-28T10:31:37.343Z,11.15
2023-04-28T10:34:42.770Z,12.48
2023-04-28T10:38:09.236Z,12.13
2023-04-28T10:41:34.909Z,12.10
2023-04-28T10:44:44.745Z,11.75
2023-04-28T10:48:07.745Z,12.13
2023-04-28T10:51:25.922Z,11.50
2023-04-28T10:54:32.062Z,12.05
2023-04-28T10:57:38.571Z,11.73
2023-04-28T11:00:45.512Z,12.40
2023-04-28T11:04:00.964Z,12.73
2023-04-28T11:07:15.000Z,11.95
2023-04-28T11:10:20.549Z,13.25
2023-04-28T11:13:32.132Z,11.32
2023-04-28T11:16:37.937Z,12.07
2023-04-28T11:19:46.451Z,11.68
2023-04-28T11:22:55.515Z,12.52
2023-04-28T11:26:01.038Z,12.00
2023-04-28T11:29:06.970Z,12.73
2023-04-28T11:32:13.055Z,11.95
2023-04-28T11:35:21.381Z,13.00
2023-04-28T11:41:31.891Z,12.88
2023-04-28T11:44:37.271Z,11.60
2023-04-28T11:47:42.899Z,13.00
2023-04-28T11:50:50.700Z,11.77
2023-04-28T11:53:56.558Z,12.50
2023-04-28T11:57:04.458Z,11.10
2023-04-28T12:00:22.569Z,11.38
2023-04-28T12:06:36.066Z,11.75
2023-04-28T12:09:42.699Z,11.48
2023-04-28T12:12:53.079Z,10.68
2023-04-28T12:16:02.357Z,9.43
2023-04-28T12:19:10.774Z,9.57
2023-04-28T12:25:25.814Z,9.75
2023-04-28T12:31:36.374Z,9.85
2023-04-28T12:34:43.022Z,9.73
2023-04-28T12:37:48.572Z,9.45
2023-04-28T12:40:56.823Z,9.40
2023-04-28T12:44:02.495Z,8.73
2023-04-28T12:47:09.144Z,8.88
2023-04-28T12:50:14.415Z,7.60
2023-04-28T12:53:20.160Z,6.47
2023-04-28T12:56:28.381Z,5.97
2023-04-28T12:59:33.939Z,5.38
2023-04-28T13:02:39.570Z,5.13
2023-04-28T13:05:45.182Z,4.90
2023-04-28T13:08:50.410Z,4.72
2023-04-28T13:11:58.972Z,4.50
2023-04-28T13:15:04.691Z,4.50
2023-04-28T13:18:12.215Z,3.92
2023-04-28T13:21:17.754Z,3.58
2023-04-28T13:24:23.299Z,3.70
2023-04-28T13:27:31.149Z,4.15
2023-04-28T13:30:37.200Z,3.67
2023-04-28T13:33:42.362Z,3.35
2023-04-28T13:36:48.720Z,3.40
2023-04-28T13:39:53.904Z,3.58
2023-04-28T13:43:01.661Z,3.35
2023-04-28T13:46:09.454Z,3.50
2023-04-28T13:49:15.040Z,2.85
2023-04-28T13:52:20.975Z,2.47
2023-04-28T13:55:28.547Z,3.25
2023-04-28T13:58:37.274Z,2.27
2023-04-28T14:01:43.002Z,2.60
2023-04-28T14:04:51.022Z,2.40
2023-04-28T14:07:57.426Z,2.22
2023-04-28T14:11:02.773Z,2.08
2023-04-28T14:14:10.812Z,2.00
2023-04-28T14:17:16.670Z,2.42
2023-04-28T14:20:21.875Z,2.30
2023-04-28T14:23:27.380Z,1.98
2023-04-28T14:26:32.596Z,1.92
2023-04-28T14:29:40.881Z,2.33
2023-04-28T14:32:46.418Z,2.28
2023-04-28T14:35:51.794Z,1.58
2023-04-28T14:38:57.366Z,2.10
2023-04-28T14:42:04.218Z,1.73
2023-04-28T14:45:13.306Z,2.13
2023-04-28T14:48:18.882Z,1.88
2023-04-28T14:51:24.831Z,2.00
2023-04-28T14:54:30.865Z,1.80
2023-04-28T14:57:38.104Z,1.80
2023-04-28T15:00:46.281Z,1.60
2023-04-28T15:03:52.078Z,1.65
2023-04-28T15:06:57.845Z,1.90
2023-04-28T15:10:03.396Z,1.70
2023-04-28T15:13:09.701Z,1.60
2023-04-28T15:16:17.870Z,1.42
2023-04-28T15:19:23.949Z,1.90
2023-04-28T15:22:29.171Z,1.92
2023-04-28T15:25:34.929Z,1.30
2023-04-28T15:28:40.204Z,1.63
2023-04-28T15:31:48.409Z,1.80
2023-04-28T15:34:53.778Z,1.50
2023-04-28T15:38:00.457Z,1.30
2023-04-28T15:41:05.902Z,1.80
2023-04-28T15:44:11.833Z,1.70
2023-04-28T15:47:20.266Z,1.70
2023-04-28T15:50:25.659Z,1.73
2023-04-28T15:53:31.335Z,1.50
2023-04-28T15:56:37.161Z,2.72
2023-04-28T15:59:42.861Z,2.22
2023-04-28T16:02:50.839Z,2.00
2023-04-28T16:05:56.615Z,2.28
2023-04-28T16:09:02.283Z,2.47
2023-04-28T16:12:08.856Z,2.70
2023-04-28T16:15:15.347Z,2.35
2023-04-28T16:18:23.565Z,2.42
2023-04-28T16:21:28.807Z,2.33
2023-04-28T16:24:34.493Z,2.47
2023-04-28T16:27:39.926Z,2.40
2023-04-28T16:30:46.155Z,3.50
2023-04-28T16:33:54.395Z,3.22
2023-04-28T16:36:59.837Z,3.50
2023-04-28T16:40:05.265Z,3.28
2023-04-28T16:43:11.454Z,3.10
2023-04-28T16:46:16.756Z,2.75
2023-04-28T16:49:24.992Z,2.80
2023-04-28T16:52:30.314Z,2.78
2023-04-28T16:55:36.888Z,2.50
2023-04-28T16:58:42.450Z,2.42
2023-04-28T17:01:48.235Z,2.30
2023-04-28T17:04:57.116Z,2.58
2023-04-28T17:11:08.338Z,3.20
2023-04-28T17:14:13.844Z,2.50
2023-04-28T17:17:19.270Z,2.80
2023-04-28T17:20:27.658Z,2.60
2023-04-28T17:23:33.458Z,2.60
2023-04-28T17:26:38.834Z,2.28
2023-04-28T17:29:44.290Z,2.30
2023-04-28T17:32:50.017Z,2.60
2023-04-28T17:35:58.053Z,2.10
2023-04-28T17:39:04.885Z,2.42
2023-04-28T17:42:10.723Z,3.20
2023-04-28T17:45:16.427Z,3.05
2023-04-28T17:48:21.754Z,2.65
2023-04-28T17:51:30.810Z,2.97
2023-04-28T17:54:36.120Z,2.95
2023-04-28T17:57:41.579Z,3.55
2023-04-28T18:00:47.344Z,3.50
2023-04-28T18:03:52.943Z,3.92
2023-04-28T18:07:00.874Z,3.83
2023-04-28T18:10:06.262Z,3.28
2023-04-28T18:13:11.621Z,3.30
2023-04-28T18:16:17.080Z,3.38
2023-04-28T18:19:22.753Z,3.38
2023-04-28T18:22:31.247Z,3.67
2023-04-28T18:25:37.206Z,4.07
2023-04-28T18:28:42.932Z,4.30
2023-04-28T18:31:48.391Z,4.00
2023-04-28T18:34:54.169Z,3.83
2023-04-28T18:38:03.162Z,4.53
2023-04-28T18:41:15.477Z,4.53
2023-04-28T18:44:21.043Z,4.63
2023-04-28T18:47:26.890Z,5.10
2023-04-28T18:50:33.076Z,4.45
2023-04-28T18:53:41.395Z,4.50
2023-04-28T18:56:46.972Z,3.75
2023-04-28T18:59:52.522Z,4.30
2023-04-28T19:02:58.446Z,4.45
2023-04-28T19:06:03.804Z,5.47
2023-04-28T19:09:11.926Z,4.90
2023-04-28T19:12:18.048Z,5.10
2023-04-28T19:15:23.417Z,5.68
2023-04-28T19:18:28.920Z,5.97
2023-04-28T19:21:36.937Z,6.20
2023-04-28T19:24:45.093Z,6.05
2023-04-28T19:27:50.677Z,6.00
2023-04-28T19:30:56.185Z,6.10
2023-04-28T19:34:01.606Z,6.93
2023-04-28T19:37:10.339Z,6.28
2023-04-28T19:40:18.779Z,7.13
2023-04-28T19:43:25.444Z,6.60
2023-04-28T19:46:30.996Z,6.72
2023-04-28T19:49:37.016Z,6.35
2023-04-28T19:52:42.395Z,5.78
2023-04-28T19:55:50.906Z,6.20
2023-04-28T20:02:01.522Z,5.22
2023-04-28T20:05:07.556Z,5.28
2023-04-28T20:08:12.862Z,5.53
2023-04-28T20:11:21.159Z,5.38
2023-04-28T20:14:26.686Z,5.03
2023-04-28T20:17:32.036Z,4.50
2023-04-28T20:20:39.204Z,4.13
2023-04-28T20:23:44.630Z,3.63
2023-04-28T20:26:54.845Z,3.13
2023-04-28T20:30:00.172Z,2.92
2023-04-28T20:33:05.553Z,4.88
2023-04-28T20:36:11.176Z,3.00
2023-04-28T20:39:16.752Z,3.70
2023-04-28T20:42:24.728Z,3.00
2023-04-28T20:45:30.223Z,3.15
2023-04-28T20:48:35.725Z,4.70
2023-04-28T20:51:42.156Z,4.25
2023-04-28T20:54:48.246Z,3.70
2023-04-28T20:57:56.457Z,3.97
2023-04-28T21:01:02.379Z,4.18
2023-04-28T21:04:08.331Z,4.32
2023-04-28T21:07:13.822Z,4.70
2023-04-28T21:10:19.359Z,3.83
2023-04-28T21:13:28.876Z,3.78
2023-04-28T21:16:34.667Z,4.00
2023-04-28T21:19:39.779Z,4.35
2023-04-28T21:22:45.332Z,3.45
2023-04-28T21:25:50.623Z,3.00
2023-04-28T21:28:58.458Z,3.33
2023-04-28T21:32:04.431Z,3.80
2023-04-28T21:35:11.315Z,3.00
2023-04-28T21:38:16.714Z,3.28
2023-04-28T21:41:22.211Z,3.10
2023-04-28T21:44:30.239Z,5.75
2023-04-28T21:47:35.940Z,3.63
2023-04-28T21:50:41.229Z,3.67
2023-04-28T21:53:47.166Z,3.35
2023-04-28T21:56:52.932Z,4.22
2023-04-28T22:00:01.097Z,4.57
2023-04-28T22:03:08.045Z,3.95
2023-04-28T22:06:13.957Z,3.85
2023-04-28T22:09:19.466Z,3.13
2023-04-28T22:12:24.757Z,2.83
2023-04-28T22:15:33.001Z,3.40
2023-04-28T22:18:38.511Z,3.25
2023-04-28T22:21:44.600Z,2.70
2023-04-28T22:24:50.382Z,2.70
2023-04-28T22:27:55.797Z,2.45
2023-04-28T22:31:03.621Z,2.70
2023-04-28T22:34:10.284Z,2.72
2023-04-28T22:37:16.109Z,2.53
2023-04-28T22:40:22.012Z,2.50
2023-04-28T22:43:28.000Z,1.98
2023-04-28T22:46:36.000Z,2.15
2023-04-28T22:49:41.260Z,1.90
2023-04-28T22:52:46.924Z,1.92
2023-04-28T22:55:52.221Z,1.58
2023-04-28T22:58:58.037Z,1.88
2023-04-28T23:02:06.532Z,1.63
2023-04-28T23:05:12.182Z,2.28
2023-04-28T23:08:17.509Z,1.92
2023-04-28T23:11:24.695Z,2.20
2023-04-28T23:14:29.968Z,2.83
2023-04-28T23:17:38.226Z,2.25
2023-04-28T23:20:43.631Z,2.30
2023-04-28T23:23:49.043Z,2.80
2023-04-28T23:26:54.381Z,2.45
2023-04-28T23:30:00.170Z,2.70
2023-04-28T23:33:08.247Z,2.42
2023-04-28T23:36:14.390Z,2.50
2023-04-28T23:39:19.828Z,2.55
2023-04-28T23:42:25.149Z,2.45
2023-04-28T23:45:30.709Z,2.70
2023-04-28T23:48:39.111Z,2.65
2023-04-28T23:54:49.909Z,2.45
2023-04-28T23:57:55.620Z,2.80
